Time;durP1;ratioP1;P1;durP2;ratioP2;P2;SDS_P1;SDS_P2;PMS_P1;PMS_P2;Temp;Humidity;BMP_temperature;BMP_pressure;BME280_temperature;BME280_humidity;BME280_pressure;Samples;Min_cycle;Max_cycle;Signal;HPM_P1;HPM_P2
2023/06/25 00:00:55;;;;;;;7.60;5.05;;;538.10;2406.40;;;;;;5048691;28;20029;-62
2023/06/25 00:03:21;;;;;;;10.05;5.53;;;538.20;2406.40;;;;;;5048649;28;20041;-63
2023/06/25 00:05:47;;;;;;;6.20;5.25;;;538.00;2406.40;;;;;;5048883;28;20459;-63
2023/06/25 00:08:12;;;;;;;5.93;5.03;;;538.10;2406.40;;;;;;5048096;28;20540;-63
2023/06/25 00:10:38;;;;;;;6.95;5.15;;;538.00;2406.40;;;;;;5035711;28;20055;-63
2023/06/25 00:13:04;;;;;;;6.28;4.50;;;538.00;2406.40;;;;;;5048391;28;20078;-66
2023/06/25 00:15:30;;;;;;;6.18;4.85;;;538.00;2406.40;;;;;;5041885;28;20104;-62
2023/06/25 00:17:56;;;;;;;5.60;4.50;;;538.00;2406.40;;;;;;5042715;28;20516;-63
2023/06/25 00:20:25;;;;;;;7.22;5.30;;;538.10;2406.40;;;;;;5049104;28;20017;-65
2023/06/25 00:22:50;;;;;;;6.25;4.22;;;538.00;2406.40;;;;;;5047423;28;20037;-62
2023/06/25 00:25:17;;;;;;;7.18;4.90;;;538.00;2406.40;;;;;;5036201;28;20017;-63
2023/06/25 00:27:46;;;;;;;6.35;4.55;;;538.00;2406.40;;;;;;5048775;28;20122;-63
2023/06/25 00:30:16;;;;;;;5.10;4.60;;;538.00;2406.40;;;;;;5048610;28;20378;-63
2023/06/25 00:32:45;;;;;;;6.10;4.50;;;538.00;2406.40;;;;;;5047480;28;20092;-63
2023/06/25 00:35:12;;;;;;;6.57;4.35;;;538.00;2406.40;;;;;;5037645;28;20510;-64
2023/06/25 00:37:41;;;;;;;5.68;4.10;;;538.00;2406.40;;;;;;5051137;28;20053;-63
2023/06/25 00:40:09;;;;;;;7.38;4.45;;;538.00;2406.40;;;;;;5043008;28;20075;-63
2023/06/25 00:42:42;;;;;;;8.20;4.22;;;538.00;2406.40;;;;;;5035502;28;20065;-62
2023/06/25 00:45:13;;;;;;;7.07;5.05;;;538.00;2406.40;;;;;;5052359;28;20033;-63
2023/06/25 00:47:42;;;;;;;6.40;4.88;;;538.00;2406.40;;;;;;5051910;28;20079;-62
2023/06/25 00:50:12;;;;;;;7.93;5.05;;;538.00;2406.40;;;;;;5051913;28;20037;-62
2023/06/25 00:52:39;;;;;;;6.05;4.55;;;538.00;2406.40;;;;;;5051545;28;20439;-63
2023/06/25 00:55:08;;;;;;;6.13;4.65;;;538.00;2406.40;;;;;;5051715;28;20029;-65
2023/06/25 00:57:34;;;;;;;8.10;5.18;;;538.00;2406.40;;;;;;5051290;28;20025;-62
2023/06/25 01:00:00;;;;;;;6.22;4.70;;;538.00;2406.40;;;;;;5051765;28;20108;-63
2023/06/25 01:02:35;;;;;;;5.88;4.30;;;538.00;2406.40;;;;;;5051792;28;20538;-63
2023/06/25 01:05:07;;;;;;;5.45;4.85;;;538.00;2406.40;;;;;;5051505;28;20067;-62
2023/06/25 01:07:36;;;;;;;5.40;4.45;;;538.00;2406.40;;;;;;5051507;28;20543;-63
2023/06/25 01:10:03;;;;;;;7.50;4.78;;;538.00;2406.40;;;;;;5051639;28;20079;-62
2023/06/25 01:12:29;;;;;;;6.13;5.03;;;537.90;2406.40;;;;;;5051416;28;20025;-63
2023/06/25 01:14:56;;;;;;;5.28;4.75;;;538.00;2406.40;;;;;;5051630;28;20627;-63
2023/06/25 01:17:22;;;;;;;6.07;4.88;;;537.90;2406.40;;;;;;5051420;28;20086;-64
2023/06/25 01:19:48;;;;;;;5.82;4.82;;;538.00;2406.40;;;;;;5051334;28;20034;-64
2023/06/25 01:22:15;;;;;;;6.03;5.43;;;538.00;2406.40;;;;;;5051162;28;20036;-62
2023/06/25 01:24:44;;;;;;;5.65;5.00;;;537.90;2406.40;;;;;;5051706;28;20044;-66
2023/06/25 01:27:10;;;;;;;7.10;5.22;;;538.00;2406.40;;;;;;5050922;28;20025;-64
2023/06/25 01:29:38;;;;;;;5.60;5.03;;;537.90;2406.40;;;;;;5036818;28;20498;-66
2023/06/25 01:32:06;;;;;;;7.53;5.57;;;537.80;2406.40;;;;;;5036380;28;20025;-63
2023/06/25 01:34:31;;;;;;;6.85;5.00;;;537.80;2406.40;;;;;;5030928;28;20029;-64
2023/06/25 01:36:57;;;;;;;6.55;5.88;;;537.80;2406.40;;;;;;5030617;28;20021;-65
2023/06/25 01:39:23;;;;;;;12.57;6.30;;;537.80;2406.40;;;;;;5031058;28;20115;-66
2023/06/25 01:41:49;;;;;;;6.55;5.47;;;537.60;2406.40;;;;;;5031001;28;20678;-65
2023/06/25 01:44:25;;;;;;;6.88;6.10;;;537.60;2406.40;;;;;;5030731;28;20029;-64
2023/06/25 01:46:51;;;;;;;6.82;6.13;;;;;;;;;;5031105;28;20064;-65
2023/06/25 01:49:17;;;;;;;8.90;6.63;;;;;;;;;;5030967;28;20391;-65
2023/06/25 01:51:43;;;;;;;6.47;5.82;;;512.90;2380.80;;;;;;5031144;28;20371;-66
2023/06/25 01:54:08;;;;;;;6.75;5.75;;;512.90;2380.80;;;;;;5039279;28;20047;-64
2023/06/25 01:56:34;;;;;;;7.57;5.82;;;537.60;2406.40;;;;;;5050638;28;20025;-65
2023/06/25 01:59:00;;;;;;;9.13;6.30;;;512.90;2380.80;;;;;;5050660;28;20100;-63
2023/06/25 02:01:26;;;;;;;6.72;6.03;;;512.90;2380.80;;;;;;5049948;28;20111;-66
2023/06/25 02:03:51;;;;;;;6.65;5.35;;;512.90;2380.80;;;;;;5050920;28;20481;-64
2023/06/25 02:06:17;;;;;;;6.57;5.20;;;512.90;2380.80;;;;;;5050228;28;20553;-66
2023/06/25 02:08:43;;;;;;;7.30;5.10;;;512.80;2380.80;;;;;;5050248;28;20041;-65
2023/06/25 02:11:08;;;;;;;6.28;5.68;;;512.70;2380.80;;;;;;5050206;28;20124;-65
2023/06/25 02:13:35;;;;;;;7.47;6.13;;;512.80;2380.80;;;;;;5050358;28;20039;-64
2023/06/25 02:16:03;;;;;;;7.32;6.55;;;512.80;2380.80;;;;;;5050258;28;20028;-65
2023/06/25 02:18:30;;;;;;;8.77;6.97;;;512.90;2380.80;;;;;;5050379;28;20444;-64
2023/06/25 02:20:55;;;;;;;8.18;6.07;;;512.90;2380.80;;;;;;5050418;28;20056;-65
2023/06/25 02:23:21;;;;;;;10.02;6.50;;;512.90;2380.80;;;;;;5050078;28;20471;-65
2023/06/25 02:25:48;;;;;;;8.40;6.97;;;512.90;2380.80;;;;;;5049549;28;20048;-66
2023/06/25 02:28:13;;;;;;;6.97;6.28;;;512.80;2380.80;;;;;;5050293;28;20025;-65
2023/06/25 02:30:39;;;;;;;7.00;6.30;;;512.80;2380.80;;;;;;5049947;28;20025;-64
2023/06/25 02:33:05;;;;;;;7.95;6.63;;;512.90;2380.80;;;;;;5050197;28;20025;-65
2023/06/25 02:35:30;;;;;;;7.07;6.22;;;512.90;2380.80;;;;;;5049868;28;20020;-65
2023/06/25 02:37:56;;;;;;;6.72;6.03;;;512.90;2380.80;;;;;;5049570;28;20044;-65
2023/06/25 02:40:22;;;;;;;7.93;6.72;;;512.90;2380.80;;;;;;5050008;28;20021;-64
2023/06/25 02:42:48;;;;;;;7.47;6.43;;;512.90;2380.80;;;;;;5049681;28;20040;-64
2023/06/25 02:45:13;;;;;;;6.75;6.03;;;512.90;2380.80;;;;;;5047044;28;20096;-64
2023/06/25 02:47:40;;;;;;;8.00;5.82;;;512.90;2380.80;;;;;;5040090;28;20067;-64
2023/06/25 02:50:06;;;;;;;6.70;5.28;;;512.90;2380.80;;;;;;5049759;28;20455;-66
2023/06/25 02:52:32;;;;;;;6.72;5.28;;;512.90;2380.80;;;;;;5049472;28;20017;-65
2023/06/25 02:54:58;;;;;;;9.05;6.00;;;512.90;2380.80;;;;;;5049552;28;20100;-65
2023/06/25 02:57:25;;;;;;;7.63;5.82;;;512.90;2380.80;;;;;;5048552;28;20079;-65
2023/06/25 02:59:51;;;;;;;7.05;6.20;;;512.90;2380.80;;;;;;5048844;28;20051;-65
2023/06/25 03:02:17;;;;;;;7.88;6.45;;;512.90;2380.80;;;;;;5049307;28;20060;-64
2023/06/25 03:04:42;;;;;;;7.82;6.43;;;512.90;2380.80;;;;;;5049156;28;20021;-65
2023/06/25 03:07:08;;;;;;;7.30;6.15;;;512.90;2380.80;;;;;;5035821;28;20036;-65
2023/06/25 03:09:34;;;;;;;8.50;6.70;;;512.90;2380.80;;;;;;5049484;28;20037;-66
2023/06/25 03:11:59;;;;;;;7.88;5.85;;;512.90;2380.80;;;;;;5049087;28;20497;-65
2023/06/25 03:14:25;;;;;;;8.45;5.88;;;512.90;2380.80;;;;;;5038299;28;20033;-65
2023/06/25 03:16:51;;;;;;;13.40;5.65;;;512.90;2380.80;;;;;;5047539;28;20040;-67
2023/06/25 03:19:17;;;;;;;5.88;5.28;;;512.90;2380.80;;;;;;5049490;28;20021;-65
2023/06/25 03:21:43;;;;;;;9.48;5.88;;;512.90;2380.80;;;;;;5049379;28;20470;-65
2023/06/25 03:24:08;;;;;;;7.85;5.32;;;512.90;2380.80;;;;;;5037264;28;20069;-64
2023/06/25 03:26:34;;;;;;;5.88;5.25;;;512.90;2380.80;;;;;;5047471;28;20395;-65
2023/06/25 03:29:00;;;;;;;6.65;5.53;;;512.90;2380.80;;;;;;5048991;28;20040;-64
2023/06/25 03:31:25;;;;;;;7.30;5.75;;;512.90;2380.80;;;;;;5049149;28;20017;-65
2023/06/25 03:33:51;;;;;;;7.05;5.10;;;512.90;2380.80;;;;;;5049313;28;20531;-64
2023/06/25 03:36:17;;;;;;;7.60;5.70;;;512.80;2380.80;;;;;;5049036;28;20024;-65
2023/06/25 03:38:43;;;;;;;6.43;4.88;;;512.90;2380.80;;;;;;5048777;28;20380;-65
2023/06/25 03:41:09;;;;;;;6.13;5.53;;;512.80;2380.80;;;;;;5048974;28;20044;-65
2023/06/25 03:43:34;;;;;;;9.10;5.50;;;512.90;2380.80;;;;;;5037074;28;20041;-64
2023/06/25 03:46:00;;;;;;;8.13;4.68;;;512.90;2380.80;;;;;;5047195;28;20025;-64
2023/06/25 03:48:26;;;;;;;6.88;5.13;;;512.90;2380.80;;;;;;5048942;28;20032;-64
2023/06/25 03:50:51;;;;;;;7.70;5.05;;;512.90;2380.80;;;;;;5048680;28;20021;-66
2023/06/25 03:53:18;;;;;;;7.50;5.03;;;512.90;2380.80;;;;;;5048632;28;20047;-66
2023/06/25 03:55:43;;;;;;;6.85;6.07;;;512.90;2380.80;;;;;;5048979;28;20411;-66
2023/06/25 03:58:09;;;;;;;6.35;5.03;;;512.90;2380.80;;;;;;5048762;28;20071;-65
2023/06/25 04:00:35;;;;;;;6.70;4.95;;;512.80;2380.80;;;;;;5048601;28;20102;-65
2023/06/25 04:03:00;;;;;;;6.32;4.60;;;512.80;2380.80;;;;;;5048735;28;20067;-65
2023/06/25 04:05:26;;;;;;;6.40;5.38;;;512.90;2380.80;;;;;;5048448;28;20029;-65
2023/06/25 04:07:52;;;;;;;9.20;5.22;;;512.90;2380.80;;;;;;5048712;28;20029;-64
2023/06/25 04:10:17;;;;;;;5.88;4.93;;;512.90;2380.80;;;;;;5048877;28;20021;-65
2023/06/25 04:12:43;;;;;;;5.90;4.75;;;512.90;2380.80;;;;;;5052872;28;20056;-66
2023/06/25 04:15:09;;;;;;;5.88;5.05;;;512.90;2380.80;;;;;;5052309;28;20033;-65
2023/06/25 04:17:35;;;;;;;7.20;4.97;;;512.90;2380.80;;;;;;5052782;28;20036;-65
2023/06/25 04:20:00;;;;;;;5.25;4.60;;;512.90;2380.80;;;;;;5052629;28;20017;-66
2023/06/25 04:22:26;;;;;;;6.05;4.25;;;512.90;2380.80;;;;;;5052230;28;20459;-66
2023/06/25 04:24:52;;;;;;;6.75;5.10;;;537.60;2406.40;;;;;;5052177;28;20390;-65
2023/06/25 04:27:19;;;;;;;6.35;4.32;;;512.90;2380.80;;;;;;5052647;28;20083;-65
2023/06/25 04:29:45;;;;;;;6.18;5.00;;;537.60;2406.40;;;;;;5052148;28;20033;-66
2023/06/25 04:32:11;;;;;;;7.30;5.05;;;537.60;2406.40;;;;;;5052595;28;20704;-65
2023/06/25 04:34:36;;;;;;;7.22;4.38;;;537.70;2406.40;;;;;;5051876;28;20517;-64
2023/06/25 04:37:02;;;;;;;5.70;4.53;;;537.80;2406.40;;;;;;5051739;28;20021;-65
2023/06/25 04:39:28;;;;;;;6.57;5.03;;;537.80;2406.40;;;;;;5051744;28;20040;-65
2023/06/25 04:41:53;;;;;;;7.63;4.50;;;538.00;2406.40;;;;;;5052571;28;20399;-66
2023/06/25 04:44:19;;;;;;;8.55;5.43;;;538.40;2406.40;;;;;;5042171;28;20025;-65
2023/06/25 04:46:45;;;;;;;6.03;4.82;;;563.50;2432.00;;;;;;5048398;28;20057;-65
2023/06/25 04:49:10;;;;;;;7.90;4.43;;;563.60;2432.00;;;;;;5052216;28;20036;-64
2023/06/25 04:51:36;;;;;;;6.75;4.65;;;563.70;2432.00;;;;;;5051589;28;20017;-63
2023/06/25 04:54:02;;;;;;;4.70;4.20;;;563.60;2432.00;;;;;;5042436;28;20384;-65
2023/06/25 04:56:28;;;;;;;5.28;4.68;;;563.60;2432.00;;;;;;5047468;28;20028;-64
2023/06/25 04:58:53;;;;;;;7.10;4.68;;;563.50;2432.00;;;;;;5051922;28;20060;-65
2023/06/25 05:01:20;;;;;;;6.97;5.35;;;563.40;2432.00;;;;;;5051668;28;20025;-65
2023/06/25 05:03:46;;;;;;;7.65;4.72;;;563.50;2432.00;;;;;;5051584;28;20041;-66
2023/06/25 05:06:11;;;;;;;7.07;4.10;;;563.60;2432.00;;;;;;5052290;28;20021;-64
2023/06/25 05:08:37;;;;;;;4.45;3.80;;;564.10;2432.00;;;;;;5050376;28;20086;-64
2023/06/25 05:11:03;;;;;;;6.45;4.35;;;589.30;2432.00;;;;;;5038736;28;20068;-62
2023/06/25 05:13:30;;;;;;;5.15;4.30;;;615.00;2432.00;;;;;;5051078;28;20423;-65
2023/06/25 05:15:56;;;;;;;5.13;4.57;;;666.00;2432.00;;;;;;5051771;28;20134;-66
2023/06/25 05:18:21;;;;;;;6.57;4.85;;;666.10;2432.00;;;;;;5051414;28;20017;-65
2023/06/25 05:20:47;;;;;;;4.88;4.28;;;691.50;2432.00;;;;;;5051576;28;20083;-65
2023/06/25 05:23:12;;;;;;;5.88;4.50;;;666.50;2432.00;;;;;;5050841;28;20075;-65
2023/06/25 05:25:38;;;;;;;8.30;4.50;;;665.70;2432.00;;;;;;5044333;28;20391;-65
2023/06/25 05:28:05;;;;;;;6.30;4.57;;;640.60;2432.00;;;;;;5044647;28;20029;-63
2023/06/25 05:30:32;;;;;;;5.50;4.80;;;615.00;2432.00;;;;;;5051189;28;20079;-65
2023/06/25 05:32:58;;;;;;;7.05;4.95;;;614.90;2432.00;;;;;;5051025;28;20021;-65
2023/06/25 05:35:26;;;;;;;4.90;4.32;;;614.70;2432.00;;;;;;5051164;28;20020;-65
2023/06/25 05:37:52;;;;;;;6.45;4.65;;;614.50;2432.00;;;;;;5050788;28;20376;-65
2023/06/25 05:40:18;;;;;;;6.25;4.97;;;589.70;2432.00;;;;;;5051357;28;20025;-65
2023/06/25 05:42:43;;;;;;;9.85;5.25;;;589.70;2432.00;;;;;;5050721;28;20041;-63
2023/06/25 05:45:09;;;;;;;5.88;5.28;;;589.70;2432.00;;;;;;5050856;28;20064;-65
2023/06/25 05:47:35;;;;;;;8.93;5.07;;;614.60;2432.00;;;;;;5050553;28;20025;-65
2023/06/25 05:50:01;;;;;;;5.78;4.78;;;614.80;2432.00;;;;;;5050948;28;20043;-65
2023/06/25 05:52:27;;;;;;;7.00;5.53;;;615.00;2432.00;;;;;;5050083;28;20103;-63
2023/06/25 05:54:52;;;;;;;6.20;4.32;;;615.30;2432.00;;;;;;5050998;28;20025;-66
2023/06/25 05:57:18;;;;;;;6.80;5.03;;;640.00;2432.00;;;;;;5050825;28;20018;-65
2023/06/25 05:59:44;;;;;;;5.88;5.25;;;640.10;2432.00;;;;;;5051098;28;20096;-65
2023/06/25 06:02:10;;;;;;;7.70;5.85;;;640.30;2432.00;;;;;;5050439;28;20104;-65
2023/06/25 06:04:36;;;;;;;6.22;5.18;;;640.70;2432.00;;;;;;5050405;28;20029;-66
2023/06/25 06:07:02;;;;;;;7.28;5.57;;;691.40;2432.00;;;;;;5050150;28;20037;-64
2023/06/25 06:09:28;;;;;;;9.35;5.38;;;742.90;2380.80;;;;;;5050324;28;20044;-65
2023/06/25 06:11:53;;;;;;;7.95;6.57;;;794.30;2099.20;;;;;;5050593;28;20021;-65
2023/06/25 06:14:19;;;;;;;6.75;5.60;;;844.90;1945.60;;;;;;5050581;28;20430;-65
2023/06/25 06:16:45;;;;;;;5.93;5.05;;;819.60;1945.60;;;;;;5050218;28;20036;-65
2023/06/25 06:19:10;;;;;;;7.20;6.10;;;768.90;1996.80;;;;;;5050233;28;20096;-65
2023/06/25 06:21:36;;;;;;;6.28;5.53;;;742.60;2124.80;;;;;;5050147;28;20056;-65
2023/06/25 06:24:02;;;;;;;6.80;5.82;;;717.40;2150.40;;;;;;5049836;28;20040;-65
2023/06/25 06:26:28;;;;;;;6.22;5.57;;;717.20;2176.00;;;;;;5050228;28;20024;-64
2023/06/25 06:28:53;;;;;;;7.40;5.75;;;717.50;2150.40;;;;;;5050320;28;20379;-63
2023/06/25 06:31:20;;;;;;;6.68;6.05;;;717.40;2176.00;;;;;;5050081;28;20017;-63
2023/06/25 06:33:46;;;;;;;9.43;5.82;;;692.10;2201.60;;;;;;5049299;28;20028;-65
2023/06/25 06:36:12;;;;;;;6.53;5.45;;;691.90;2252.80;;;;;;5048685;28;20036;-65
2023/06/25 06:38:38;;;;;;;7.55;6.25;;;691.60;2252.80;;;;;;5049495;28;20084;-65
2023/06/25 06:41:04;;;;;;;6.43;5.57;;;691.70;2252.80;;;;;;5049839;28;20025;-66
2023/06/25 06:43:30;;;;;;;9.45;5.85;;;691.30;2278.40;;;;;;5049640;28;20033;-63
2023/06/25 06:45:56;;;;;;;8.80;6.05;;;691.60;2304.00;;;;;;5049376;28;20013;-65
2023/06/25 06:48:22;;;;;;;7.00;6.30;;;691.60;2304.00;;;;;;5048552;28;20033;-63
2023/06/25 06:50:47;;;;;;;8.00;7.20;;;691.30;2329.60;;;;;;5049491;28;20029;-64
2023/06/25 06:53:13;;;;;;;8.35;7.55;;;666.10;2380.80;;;;;;5042073;28;20072;-63
2023/06/25 06:55:39;;;;;;;9.10;7.13;;;665.60;2432.00;;;;;;5035152;28;20036;-64
2023/06/25 06:58:05;;;;;;;7.25;6.53;;;665.60;2432.00;;;;;;5049920;28;20025;-64
2023/06/25 07:00:31;;;;;;;8.68;7.15;;;665.70;2432.00;;;;;;5035836;28;20525;-63
2023/06/25 07:02:59;;;;;;;8.95;7.32;;;665.90;2432.00;;;;;;5048835;28;20032;-65
2023/06/25 07:05:24;;;;;;;8.68;7.80;;;665.90;2432.00;;;;;;5047343;28;20090;-63
2023/06/25 07:07:50;;;;;;;8.15;7.22;;;666.20;2406.40;;;;;;5047667;28;20470;-64
2023/06/25 07:10:16;;;;;;;8.07;7.35;;;666.40;2406.40;;;;;;5047868;28;20071;-66
2023/06/25 07:12:42;;;;;;;8.93;8.02;;;691.30;2380.80;;;;;;5048366;28;20045;-64
2023/06/25 07:15:08;;;;;;;8.82;7.93;;;691.70;2355.20;;;;;;5034030;28;20383;-65
2023/06/25 07:17:34;;;;;;;8.35;7.65;;;692.10;2304.00;;;;;;5039410;28;20029;-65
2023/06/25 07:20:00;;;;;;;9.40;8.52;;;716.80;2329.60;;;;;;5039833;28;20486;-63
2023/06/25 07:22:25;;;;;;;10.13;9.07;;;692.10;2304.00;;;;;;5040596;28;20036;-64
2023/06/25 07:24:51;;;;;;;9.50;8.60;;;691.90;2329.60;;;;;;5046889;28;20430;-64
2023/06/25 07:27:16;;;;;;;9.65;8.65;;;716.90;2304.00;;;;;;5049177;28;20098;-65
2023/06/25 07:29:42;;;;;;;10.10;9.20;;;717.50;2252.80;;;;;;5049130;28;20032;-64
2023/06/25 07:32:08;;;;;;;12.80;7.90;;;717.40;2252.80;;;;;;5049201;28;20481;-64
2023/06/25 07:34:34;;;;;;;8.80;7.90;;;717.40;2252.80;;;;;;5048608;28;20049;-63
2023/06/25 07:37:00;;;;;;;8.60;7.75;;;717.70;2201.60;;;;;;5048662;28;20052;-64
2023/06/25 07:39:29;;;;;;;8.32;7.53;;;742.60;2201.60;;;;;;5048952;28;20059;-65
2023/06/25 07:41:58;;;;;;;7.68;6.80;;;742.50;2201.60;;;;;;5049129;28;20537;-63
2023/06/25 07:44:24;;;;;;;7.45;6.63;;;717.50;2201.60;;;;;;5043761;28;20033;-64
2023/06/25 07:46:50;;;;;;;8.10;7.10;;;717.30;2227.20;;;;;;5047880;28;20021;-64
2023/06/25 07:49:15;;;;;;;6.82;6.13;;;716.80;2278.40;;;;;;5055308;28;20079;-65
2023/06/25 07:51:53;;;;;;;7.22;6.50;;;691.80;2278.40;;;;;;5055593;28;20083;-63
2023/06/25 07:54:19;;;;;;;8.10;6.88;;;691.70;2278.40;;;;;;5055532;28;20068;-65
2023/06/25 07:56:45;;;;;;;7.57;6.78;;;691.70;2304.00;;;;;;5044933;28;20037;-64
2023/06/25 07:59:14;;;;;;;8.15;7.40;;;691.50;2304.00;;;;;;5035184;28;20431;-62
2023/06/25 08:01:40;;;;;;;9.13;7.55;;;691.40;2329.60;;;;;;5042093;28;20112;-63
2023/06/25 08:04:06;;;;;;;9.13;8.07;;;691.40;2329.60;;;;;;5055318;28;20112;-62
2023/06/25 08:06:32;;;;;;;9.40;8.52;;;691.60;2304.00;;;;;;5055341;28;20487;-63
2023/06/25 08:08:58;;;;;;;8.93;7.65;;;691.40;2329.60;;;;;;5055267;28;20033;-63
2023/06/25 08:11:23;;;;;;;9.55;8.68;;;691.50;2355.20;;;;;;5055698;28;20371;-63
2023/06/25 08:13:49;;;;;;;10.48;9.07;;;691.60;2432.00;;;;;;5055359;28;20061;-64
2023/06/25 08:16:15;;;;;;;9.35;8.45;;;691.80;2329.60;;;;;;5055158;28;20862;-63
2023/06/25 08:18:41;;;;;;;11.35;9.63;;;691.60;2355.20;;;;;;5055340;28;20025;-65
2023/06/25 08:21:07;;;;;;;11.02;10.07;;;691.60;2355.20;;;;;;5055171;28;20021;-63
2023/06/25 08:23:32;;;;;;;10.88;9.77;;;691.30;2355.20;;;;;;5048296;28;20494;-65
2023/06/25 08:25:58;;;;;;;11.93;10.90;;;691.30;2355.20;;;;;;5048720;28;20029;-64
2023/06/25 08:28:24;;;;;;;12.07;10.98;;;691.20;2355.20;;;;;;5055252;28;20019;-62
2023/06/25 08:30:49;;;;;;;10.80;9.77;;;691.20;2355.20;;;;;;5042601;28;20036;-64
2023/06/25 08:33:15;;;;;;;12.23;11.13;;;666.40;2380.80;;;;;;5034915;28;20801;-62
2023/06/25 08:35:41;;;;;;;11.98;10.77;;;;;;;;;;5035257;28;20025;-62
2023/06/25 08:38:07;;;;;;;13.55;12.23;;;;;;;;;;5034100;28;20111;-64
2023/06/25 08:40:36;;;;;;;13.68;12.38;;;666.30;2432.00;;;;;;5045046;28;20043;-63
2023/06/25 08:43:02;;;;;;;13.77;12.68;;;666.20;2432.00;;;;;;5054672;28;20025;-64
2023/06/25 08:45:28;;;;;;;14.10;12.90;;;665.70;2432.00;;;;;;5054941;28;20029;-63
2023/06/25 08:47:55;;;;;;;15.10;13.70;;;;;;;;;;5046106;28;20040;-64
2023/06/25 08:50:21;;;;;;;16.58;14.88;;;640.80;2432.00;;;;;;5024385;28;20079;-63
2023/06/25 08:52:47;;;;;;;16.23;14.80;;;;;;;;;;5036862;28;20026;-64
2023/06/25 08:55:14;;;;;;;16.23;14.85;;;;;;;;;;5029636;28;20033;-62
2023/06/25 08:57:40;;;;;;;17.10;15.50;;;;;;;;;;5028163;28;20058;-63
2023/06/25 09:00:07;;;;;;;17.67;16.17;;;;;;;;;;5031138;28;20030;-64
2023/06/25 09:02:33;;;;;;;17.00;15.50;;;;;;;;;;5031100;28;20029;-62
2023/06/25 09:05:03;;;;;;;19.08;17.38;;;;;;;;;;5037386;28;20096;-62
2023/06/25 09:07:29;;;;;;;17.33;15.85;;;;;;;;;;5025233;28;20022;-61
2023/06/25 09:09:55;;;;;;;18.13;16.48;;;;;;;;;;5034584;28;20402;-63
2023/06/25 09:12:25;;;;;;;17.05;15.45;;;;;;;;;;5028897;28;20017;-62
2023/06/25 09:14:51;;;;;;;18.23;16.52;;;666.00;2432.00;;;;;;5038811;28;20029;-62
2023/06/25 09:17:20;;;;;;;18.60;16.95;;;666.00;2432.00;;;;;;5031931;28;20037;-61
2023/06/25 09:19:46;;;;;;;16.98;15.50;;;666.10;2432.00;;;;;;5032447;28;20431;-64
2023/06/25 09:22:12;;;;;;;18.45;16.70;;;666.50;2432.00;;;;;;5029608;28;20045;-63
2023/06/25 09:24:47;;;;;;;17.92;16.38;;;666.40;2432.00;;;;;;5030021;28;20117;-61
2023/06/25 09:27:12;;;;;;;16.70;15.10;;;666.40;2432.00;;;;;;5018732;28;20018;-64
2023/06/25 09:29:39;;;;;;;18.92;16.88;;;666.20;2432.00;;;;;;5034809;28;20032;-62
2023/06/25 09:32:09;;;;;;;17.95;16.15;;;666.00;2432.00;;;;;;5027442;28;20153;-62
2023/06/25 09:34:36;;;;;;;19.25;16.58;;;665.80;2432.00;;;;;;5030085;28;20083;-63
2023/06/25 09:37:03;;;;;;;18.25;16.58;;;665.70;2432.00;;;;;;5017490;28;20112;-62
2023/06/25 09:39:30;;;;;;;18.52;16.80;;;665.90;2432.00;;;;;;5021608;28;20026;-67
2023/06/25 09:41:56;;;;;;;16.30;14.80;;;666.00;2432.00;;;;;;5032449;28;20442;-66
2023/06/25 09:44:22;;;;;;;16.88;15.18;;;666.30;2432.00;;;;;;5027883;28;20032;-66
2023/06/25 09:46:52;;;;;;;15.32;13.88;;;666.40;2432.00;;;;;;5024333;28;20030;-65
2023/06/25 09:49:20;;;;;;;12.23;11.02;;;691.20;2432.00;;;;;;5038903;28;20375;-67
2023/06/25 09:52:07;;;;;;;13.20;11.90;;;666.50;2432.00;;;;;;5030823;28;20029;-66
2023/06/25 09:54:37;;;;;;;14.95;12.63;;;691.20;2380.80;;;;;;5023903;28;20553;-67
2023/06/25 09:57:09;;;;;;;14.25;12.82;;;691.20;2406.40;;;;;;5039237;28;20383;-66
2023/06/25 09:59:35;;;;;;;12.48;11.30;;;691.50;2432.00;;;;;;5028040;28;20025;-65
2023/06/25 10:02:02;;;;;;;11.25;10.15;;;691.20;2380.80;;;;;;5023611;28;20151;-65
2023/06/25 10:04:31;;;;;;;13.45;12.25;;;691.30;2355.20;;;;;;5033310;28;20029;-66
2023/06/25 10:06:57;;;;;;;15.48;13.10;;;691.70;2355.20;;;;;;5025987;28;20059;-67
2023/06/25 10:09:23;;;;;;;14.43;12.93;;;691.90;2329.60;;;;;;5031368;28;20154;-67
2023/06/25 10:11:54;;;;;;;12.63;11.43;;;717.10;2227.20;;;;;;5031511;28;20367;-66
2023/06/25 10:14:21;;;;;;;12.43;10.95;;;717.20;2201.60;;;;;;5030321;28;20040;-65
2023/06/25 10:16:55;;;;;;;12.77;11.63;;;717.10;2201.60;;;;;;5032304;28;20037;-66
2023/06/25 10:19:25;;;;;;;12.70;11.50;;;717.20;2150.40;;;;;;5024804;28;20061;-68
2023/06/25 10:22:05;;;;;;;11.95;10.75;;;717.20;2176.00;;;;;;5028597;28;20022;-65
2023/06/25 10:24:41;;;;;;;10.35;9.45;;;717.50;2150.40;;;;;;5024126;28;20037;-66
2023/06/25 10:27:24;;;;;;;11.40;10.30;;;717.30;2227.20;;;;;;5028770;28;20084;-65
2023/06/25 10:29:51;;;;;;;9.88;8.98;;;716.80;2278.40;;;;;;5025936;28;20040;-66
2023/06/25 10:32:21;;;;;;;10.82;9.80;;;716.80;2227.20;;;;;;5029076;28;20025;-67
2023/06/25 10:34:56;;;;;;;10.50;9.60;;;692.10;2227.20;;;;;;5043776;28;20086;-68
2023/06/25 10:37:27;;;;;;;11.20;9.43;;;691.90;2227.20;;;;;;5029727;28;20487;-66
2023/06/25 10:40:04;;;;;;;20.98;11.00;;;691.80;2304.00;;;;;;5030121;28;20029;-66
2023/06/25 10:42:31;;;;;;;12.60;10.90;;;691.40;2278.40;;;;;;5029868;28;20017;-65
2023/06/25 10:44:59;;;;;;;15.52;11.57;;;691.90;2227.20;;;;;;5028283;28;20107;-64
2023/06/25 10:47:25;;;;;;;11.60;10.35;;;716.90;2227.20;;;;;;5019530;28;20073;-66
2023/06/25 10:49:51;;;;;;;11.10;10.00;;;692.00;2201.60;;;;;;5043270;28;20053;-66
2023/06/25 10:52:18;;;;;;;12.25;10.50;;;691.40;2252.80;;;;;;5028830;28;20022;-66
2023/06/25 10:54:44;;;;;;;12.40;11.13;;;691.30;2278.40;;;;;;5025362;28;20043;-65
2023/06/25 10:57:11;;;;;;;12.13;10.23;;;691.30;2329.60;;;;;;5039975;28;20020;-66
2023/06/25 10:59:38;;;;;;;12.50;11.23;;;666.50;2380.80;;;;;;5021188;28;20096;-67
2023/06/25 11:02:17;;;;;;;12.65;11.43;;;666.20;2406.40;;;;;;5023626;28;20469;-64
2023/06/25 11:04:53;;;;;;;12.05;10.85;;;665.90;2406.40;;;;;;5024367;28;20124;-65
2023/06/25 11:07:20;;;;;;;13.93;12.52;;;665.70;2432.00;;;;;;5028089;28;20021;-65
2023/06/25 11:09:56;;;;;;;11.93;10.90;;;640.70;2432.00;;;;;;5020019;28;20037;-65
2023/06/25 11:12:22;;;;;;;13.10;11.77;;;;;;;;;;5021880;28;20035;-65
2023/06/25 11:14:48;;;;;;;12.13;10.93;;;640.70;2432.00;;;;;;5025479;28;20034;-66
2023/06/25 11:17:14;;;;;;;12.77;11.02;;;640.60;2432.00;;;;;;5030914;28;20041;-65
2023/06/25 11:19:40;;;;;;;12.70;11.40;;;640.60;2432.00;;;;;;5028587;28;20786;-65
2023/06/25 11:22:10;;;;;;;12.15;11.00;;;640.50;2432.00;;;;;;5028240;28;20097;-65
2023/06/25 11:24:39;;;;;;;12.48;11.38;;;640.40;2432.00;;;;;;5030782;28;20038;-66
2023/06/25 11:27:05;;;;;;;13.43;10.80;;;640.30;2432.00;;;;;;5024668;28;20348;-65
2023/06/25 11:29:49;;;;;;;14.65;12.52;;;;;;;;;;5028485;28;20500;-65
2023/06/25 11:32:21;;;;;;;13.30;11.85;;;;;;;;;;5030064;28;20025;-65
2023/06/25 11:34:47;;;;;;;13.18;11.88;;;640.60;2432.00;;;;;;5023252;28;20021;-67
2023/06/25 11:37:14;;;;;;;13.05;11.85;;;;;;;;;;5021585;28;20064;-64
2023/06/25 11:39:46;;;;;;;12.07;10.98;;;;;;;;;;5027166;28;20688;-65
2023/06/25 11:42:13;;;;;;;14.18;12.77;;;;;;;;;;5018967;28;20026;-66
2023/06/25 11:44:39;;;;;;;16.13;13.27;;;640.50;2432.00;;;;;;5022838;28;20061;-67
2023/06/25 11:47:05;;;;;;;14.68;13.27;;;;;;;;;;5037572;28;20059;-66
2023/06/25 11:49:31;;;;;;;12.65;11.45;;;;;;;;;;5031037;28;20120;-65
2023/06/25 11:52:00;;;;;;;13.07;11.88;;;;;;;;;;5014644;28;20052;-65
2023/06/25 11:54:26;;;;;;;13.63;12.43;;;;;;;;;;5029972;28;20045;-67
2023/06/25 11:56:52;;;;;;;16.02;13.70;;;;;;;;;;5041103;28;20065;-65
2023/06/25 11:59:18;;;;;;;13.50;12.20;;;;;;;;;;5030447;28;20494;-66
2023/06/25 12:01:44;;;;;;;14.02;12.73;;;;;;;;;;5022423;28;20415;-67
2023/06/25 12:04:10;;;;;;;12.50;11.20;;;;;;;;;;5025957;28;20041;-64
2023/06/25 12:06:36;;;;;;;14.07;12.63;;;;;;;;;;5019739;28;20120;-67
2023/06/25 12:09:03;;;;;;;14.60;13.25;;;;;;;;;;5030432;28;20037;-65
2023/06/25 12:11:29;;;;;;;13.32;11.95;;;;;;;;;;5018267;28;20194;-65
2023/06/25 12:13:55;;;;;;;13.25;11.88;;;665.60;2432.00;;;;;;5021205;28;20045;-65
2023/06/25 12:16:21;;;;;;;12.55;11.35;;;;;;;;;;5030782;28;20812;-65
2023/06/25 12:18:47;;;;;;;13.05;11.85;;;;;;;;;;5032107;28;20112;-67
2023/06/25 12:21:13;;;;;;;12.35;11.15;;;;;;;;;;5020758;28;20456;-66
2023/06/25 12:23:39;;;;;;;13.13;11.88;;;;;;;;;;5029463;28;20549;-65